Time;durP1;ratioP1;P1;durP2;ratioP2;P2;SDS_P1;SDS_P2;PMS_P1;PMS_P2;Temp;Humidity;BMP_temperature;BMP_pressure;BME280_temperature;BME280_humidity;BME280_pressure;Samples;Min_cycle;Max_cycle;Signal;HPM_P1;HPM_P2
2023/12/30 00:00:57;;;;;;;17.90;2.00;;;9.50;99.90;;;;;;5052832;28;20522;-75
2023/12/30 00:03:23;;;;;;;5.70;1.30;;;9.60;99.90;;;;;;5053706;28;20194;-75
2023/12/30 00:05:48;;;;;;;2.20;1.23;;;9.60;99.90;;;;;;5053962;28;20245;-75
2023/12/30 00:08:14;;;;;;;3.53;1.87;;;9.50;99.90;;;;;;5053964;28;20181;-75
2023/12/30 00:10:39;;;;;;;10.87;1.97;;;9.60;99.90;;;;;;5053764;28;20217;-75
2023/12/30 00:13:05;;;;;;;3.00;1.53;;;9.50;99.90;;;;;;5053652;28;20197;-76
2023/12/30 00:15:30;;;;;;;4.83;1.60;;;9.50;99.90;;;;;;5053687;28;20203;-76
2023/12/30 00:17:56;;;;;;;3.70;1.57;;;9.60;99.90;;;;;;5053805;28;20181;-76
2023/12/30 00:20:22;;;;;;;16.40;1.63;;;9.50;99.90;;;;;;5053746;28;20619;-76
2023/12/30 00:22:47;;;;;;;5.53;1.80;;;9.60;99.90;;;;;;5053455;28;20195;-76
2023/12/30 00:25:13;;;;;;;3.77;1.43;;;9.60;99.90;;;;;;5053504;28;20426;-75
2023/12/30 00:27:39;;;;;;;5.70;2.23;;;9.70;99.90;;;;;;5053565;28;20642;-76
2023/12/30 00:30:05;;;;;;;4.90;1.90;;;9.80;99.90;;;;;;5053506;28;20811;-76
2023/12/30 00:32:32;;;;;;;2.83;2.37;;;9.80;99.90;;;;;;5053221;28;20602;-75
2023/12/30 00:34:58;;;;;;;4.70;1.80;;;9.80;99.90;;;;;;5053361;28;20531;-76
2023/12/30 00:37:23;;;;;;;5.00;1.67;;;9.80;99.90;;;;;;5053458;28;20433;-76
2023/12/30 00:39:49;;;;;;;7.47;2.60;;;9.70;99.90;;;;;;5052158;28;20256;-76
2023/12/30 00:42:15;;;;;;;5.63;1.87;;;9.60;99.90;;;;;;5053064;28;20509;-75
2023/12/30 00:44:41;;;;;;;4.30;2.10;;;9.60;99.90;;;;;;5052923;28;20427;-75
2023/12/30 00:47:07;;;;;;;11.00;2.07;;;9.50;99.90;;;;;;5053295;28;20171;-76
2023/12/30 00:49:32;;;;;;;3.30;1.30;;;9.40;99.90;;;;;;5052975;28;20199;-76
2023/12/30 00:51:58;;;;;;;7.43;3.60;;;9.50;99.90;;;;;;5052679;28;20175;-76
2023/12/30 00:54:23;;;;;;;6.33;1.83;;;9.40;99.90;;;;;;5052785;28;20296;-76
2023/12/30 00:56:49;;;;;;;16.73;2.30;;;9.40;99.90;;;;;;5053235;28;20175;-76
2023/12/30 00:59:14;;;;;;;11.33;1.57;;;9.40;99.90;;;;;;5053114;28;20182;-75
2023/12/30 01:01:40;;;;;;;6.63;1.80;;;9.50;99.90;;;;;;5052882;28;20526;-75
2023/12/30 01:04:06;;;;;;;4.63;1.63;;;9.60;99.90;;;;;;5052691;28;20191;-75
2023/12/30 01:06:31;;;;;;;11.53;1.80;;;9.60;99.90;;;;;;5052894;28;20408;-76
2023/12/30 01:08:58;;;;;;;14.70;2.10;;;9.70;99.90;;;;;;5051505;28;20179;-76
2023/12/30 01:11:23;;;;;;;6.37;1.80;;;9.70;99.90;;;;;;5052460;28;20526;-75
2023/12/30 01:13:49;;;;;;;3.70;1.77;;;9.80;99.90;;;;;;5051272;28;20512;-76
2023/12/30 01:16:16;;;;;;;6.07;2.93;;;9.80;99.90;;;;;;5051363;28;20203;-76
2023/12/30 01:18:42;;;;;;;4.20;1.30;;;9.70;99.90;;;;;;5052573;28;20170;-75
2023/12/30 01:21:08;;;;;;;4.57;1.43;;;9.70;99.90;;;;;;5052556;28;20773;-74
2023/12/30 01:23:33;;;;;;;7.03;2.07;;;9.70;99.90;;;;;;5051976;28;20666;-75
2023/12/30 01:25:59;;;;;;;2.70;1.73;;;9.60;99.90;;;;;;5052393;28;20189;-75
2023/12/30 01:28:24;;;;;;;12.93;2.17;;;9.60;99.90;;;;;;5051354;28;20217;-75
2023/12/30 01:30:50;;;;;;;8.87;1.67;;;9.50;99.90;;;;;;5052328;28;20253;-75
2023/12/30 01:33:15;;;;;;;5.10;1.50;;;9.50;99.90;;;;;;5052013;28;20273;-74
2023/12/30 01:35:41;;;;;;;7.73;2.13;;;9.50;99.90;;;;;;5050890;28;20202;-74
2023/12/30 01:38:06;;;;;;;10.43;2.13;;;9.40;99.90;;;;;;5052150;28;20177;-74
2023/12/30 01:40:32;;;;;;;1.93;1.40;;;9.40;99.90;;;;;;5052233;28;20163;-74
2023/12/30 01:43:02;;;;;;;9.27;1.63;;;9.40;99.90;;;;;;5050631;28;20201;-74
2023/12/30 01:45:27;;;;;;;7.70;2.23;;;9.30;99.90;;;;;;5050760;28;20361;-74
2023/12/30 01:47:54;;;;;;;5.90;1.80;;;9.40;99.90;;;;;;5051019;28;20421;-76
2023/12/30 01:50:21;;;;;;;4.20;1.90;;;9.60;99.90;;;;;;5052137;28;20500;-74
2023/12/30 01:52:47;;;;;;;6.50;1.40;;;9.70;99.90;;;;;;5051512;28;20448;-75
2023/12/30 01:55:13;;;;;;;6.13;1.83;;;9.80;99.90;;;;;;5051901;28;20550;-74
2023/12/30 01:57:39;;;;;;;7.80;1.50;;;9.90;99.90;;;;;;5051404;28;20488;-74
2023/12/30 02:00:05;;;;;;;5.70;1.53;;;10.00;99.90;;;;;;5051943;28;20943;-74
2023/12/30 02:02:31;;;;;;;5.50;1.67;;;10.00;99.90;;;;;;5051651;28;20195;-74
2023/12/30 02:04:56;;;;;;;3.20;1.23;;;10.10;99.90;;;;;;5051832;28;20401;-74
2023/12/30 02:07:22;;;;;;;4.13;1.30;;;9.90;99.90;;;;;;5051821;28;20170;-74
2023/12/30 02:09:47;;;;;;;4.30;1.67;;;9.80;99.90;;;;;;5051616;28;20178;-74
2023/12/30 02:12:13;;;;;;;7.23;1.37;;;9.70;99.90;;;;;;5051514;28;20187;-74
2023/12/30 02:14:39;;;;;;;7.90;2.10;;;9.70;99.90;;;;;;5051493;28;20591;-74
2023/12/30 02:17:04;;;;;;;7.60;2.87;;;9.60;99.90;;;;;;5051764;28;20682;-75
2023/12/30 02:19:30;;;;;;;4.20;1.57;;;9.60;99.90;;;;;;5051784;28;20167;-75
2023/12/30 02:21:55;;;;;;;5.80;1.37;;;9.60;99.90;;;;;;5050057;28;20174;-74
2023/12/30 02:24:21;;;;;;;8.83;1.80;;;9.60;99.90;;;;;;5051637;28;20232;-74
2023/12/30 02:26:47;;;;;;;4.70;1.40;;;9.60;99.90;;;;;;5051712;28;20177;-75
2023/12/30 02:29:12;;;;;;;5.50;1.53;;;9.60;99.90;;;;;;5051613;28;20417;-76
2023/12/30 02:31:48;;;;;;;6.00;1.30;;;9.60;99.90;;;;;;5051448;28;20175;-76
2023/12/30 02:34:16;;;;;;;5.83;2.63;;;9.60;99.90;;;;;;5051504;28;20193;-76
2023/12/30 02:36:42;;;;;;;6.90;1.40;;;9.60;99.90;;;;;;5051524;28;20402;-75
2023/12/30 02:39:08;;;;;;;5.90;2.90;;;9.70;99.90;;;;;;5051549;28;20433;-75
2023/12/30 02:41:33;;;;;;;12.90;1.93;;;9.70;99.90;;;;;;5050090;28;20441;-75
2023/12/30 02:44:03;;;;;;;5.90;1.70;;;9.80;99.90;;;;;;5050062;28;20201;-75
2023/12/30 02:46:29;;;;;;;7.93;1.87;;;9.80;99.90;;;;;;5051531;28;20172;-74
2023/12/30 02:48:56;;;;;;;9.33;1.80;;;9.90;99.90;;;;;;5051412;28;20429;-74
2023/12/30 02:51:22;;;;;;;7.43;1.60;;;9.90;99.90;;;;;;5051240;28;20433;-75
2023/12/30 02:53:47;;;;;;;6.70;1.90;;;9.80;99.90;;;;;;5051269;28;20464;-75
2023/12/30 02:56:23;;;;;;;8.37;1.87;;;9.80;99.90;;;;;;5051477;28;20199;-76
2023/12/30 02:59:00;;;;;;;4.30;1.30;;;9.90;99.90;;;;;;5050546;28;20645;-76
2023/12/30 03:01:27;;;;;;;9.03;1.47;;;9.90;99.90;;;;;;5051059;28;20440;-76
2023/12/30 03:03:54;;;;;;;6.40;1.60;;;9.80;99.90;;;;;;5049739;28;20441;-76
2023/12/30 03:06:21;;;;;;;5.80;1.50;;;9.80;99.90;;;;;;5050104;28;20459;-75
2023/12/30 03:08:47;;;;;;;3.63;2.03;;;9.90;99.90;;;;;;5053135;28;20405;-74
2023/12/30 03:11:13;;;;;;;8.07;2.07;;;9.90;99.90;;;;;;5055041;28;20401;-74
2023/12/30 03:13:38;;;;;;;5.93;1.30;;;9.80;99.90;;;;;;5054298;28;20443;-75
2023/12/30 03:16:04;;;;;;;8.70;2.00;;;9.80;99.90;;;;;;5054896;28;20202;-75
2023/12/30 03:18:30;;;;;;;5.83;2.67;;;9.70;99.90;;;;;;5053613;28;20171;-74
2023/12/30 03:20:56;;;;;;;3.53;1.77;;;9.70;99.90;;;;;;5054803;28;20409;-75
2023/12/30 03:23:21;;;;;;;2.70;1.33;;;9.70;99.90;;;;;;5054519;28;20187;-75
2023/12/30 03:25:47;;;;;;;6.73;1.17;;;9.70;99.90;;;;;;5055126;28;20908;-76
2023/12/30 03:28:12;;;;;;;4.00;0.90;;;9.80;99.90;;;;;;5054875;28;20171;-75
2023/12/30 03:30:38;;;;;;;12.43;2.40;;;9.80;99.90;;;;;;5054477;28;20171;-74
2023/12/30 03:33:03;;;;;;;3.67;1.10;;;9.80;99.90;;;;;;5054397;28;20214;-75
2023/12/30 03:35:29;;;;;;;4.83;1.50;;;9.90;99.90;;;;;;5054378;28;20202;-74
2023/12/30 03:37:55;;;;;;;6.60;1.23;;;9.90;99.90;;;;;;5054474;28;20788;-74
2023/12/30 03:40:20;;;;;;;2.50;1.13;;;9.90;99.90;;;;;;5054449;28;20511;-74
2023/12/30 03:42:45;;;;;;;6.20;1.77;;;9.90;99.90;;;;;;5052880;28;20195;-74
2023/12/30 03:45:11;;;;;;;13.77;7.10;;;10.00;99.90;;;;;;5054353;28;20673;-73
2023/12/30 03:47:37;;;;;;;12.83;3.20;;;9.90;99.90;;;;;;5054278;28;20962;-74
2023/12/30 03:50:03;;;;;;;4.20;1.57;;;9.80;99.90;;;;;;5054275;28;20167;-74
2023/12/30 03:52:29;;;;;;;3.47;2.10;;;9.80;99.90;;;;;;5053780;28;20261;-74
2023/12/30 03:54:55;;;;;;;8.60;1.63;;;9.70;99.90;;;;;;5054013;28;20440;-74
2023/12/30 03:57:21;;;;;;;2.40;1.33;;;9.70;99.90;;;;;;5054198;28;20400;-75
2023/12/30 03:59:47;;;;;;;8.43;2.00;;;9.60;99.90;;;;;;5054002;28;20393;-75
2023/12/30 04:02:13;;;;;;;15.20;1.67;;;9.60;99.90;;;;;;5052728;28;20432;-75
2023/12/30 04:04:40;;;;;;;8.53;1.90;;;9.50;99.90;;;;;;5054125;28;20535;-75
2023/12/30 04:07:06;;;;;;;7.63;1.90;;;9.50;99.90;;;;;;5053954;28;20170;-75
2023/12/30 04:09:32;;;;;;;3.53;1.40;;;9.40;99.90;;;;;;5053782;28;20401;-75
2023/12/30 04:11:57;;;;;;;8.20;2.00;;;9.30;99.90;;;;;;5053626;28;20171;-74
2023/12/30 04:14:23;;;;;;;2.23;1.20;;;9.40;99.90;;;;;;5053667;28;20187;-74
2023/12/30 04:16:48;;;;;;;4.17;1.50;;;9.30;99.90;;;;;;5053614;28;20163;-74
2023/12/30 04:19:15;;;;;;;9.30;1.73;;;9.30;99.90;;;;;;5053745;28;20163;-74
2023/12/30 04:21:41;;;;;;;4.20;1.50;;;9.40;99.90;;;;;;5053049;28;20658;-74
2023/12/30 04:24:06;;;;;;;3.90;2.30;;;9.40;99.90;;;;;;5052258;28;20425;-75
2023/12/30 04:26:32;;;;;;;7.43;1.70;;;9.40;99.90;;;;;;5053676;28;20159;-74
2023/12/30 04:28:59;;;;;;;5.37;1.50;;;9.40;99.90;;;;;;5052394;28;20521;-74
2023/12/30 04:31:24;;;;;;;4.87;2.10;;;9.40;99.90;;;;;;5053421;28;20159;-75
2023/12/30 04:33:50;;;;;;;6.07;1.70;;;9.40;99.90;;;;;;5053348;28;21111;-74
2023/12/30 04:36:15;;;;;;;4.63;1.30;;;9.50;99.90;;;;;;5053409;28;20211;-74
2023/12/30 04:38:41;;;;;;;2.73;1.33;;;9.40;99.90;;;;;;5053429;28;20163;-73
2023/12/30 04:41:06;;;;;;;7.73;1.37;;;9.40;99.90;;;;;;5053370;28;20159;-74
2023/12/30 04:43:32;;;;;;;7.57;2.13;;;9.50;99.90;;;;;;5052964;28;20179;-74
2023/12/30 04:45:58;;;;;;;6.73;1.47;;;9.40;99.90;;;;;;5053248;28;20232;-74
2023/12/30 04:48:23;;;;;;;5.53;2.27;;;9.50;99.90;;;;;;5053200;28;20167;-74
2023/12/30 04:50:49;;;;;;;7.00;2.17;;;9.40;99.90;;;;;;5053265;28;20174;-75
2023/12/30 04:53:14;;;;;;;13.50;1.80;;;9.40;99.90;;;;;;5052665;28;20202;-74
2023/12/30 04:55:41;;;;;;;7.50;1.70;;;9.30;99.90;;;;;;5052939;28;20315;-74
2023/12/30 04:58:06;;;;;;;7.23;1.83;;;9.20;99.90;;;;;;5051701;28;20641;-74
2023/12/30 05:00:32;;;;;;;5.50;1.87;;;9.20;99.90;;;;;;5053037;28;20429;-75
2023/12/30 05:02:57;;;;;;;10.13;1.83;;;9.20;99.90;;;;;;5051119;28;20245;-74
2023/12/30 05:05:23;;;;;;;8.47;1.93;;;9.20;99.90;;;;;;5052637;28;20167;-75
2023/12/30 05:07:49;;;;;;;7.40;2.30;;;9.20;99.90;;;;;;5052849;28;20163;-74
2023/12/30 05:10:14;;;;;;;12.40;1.90;;;9.10;99.90;;;;;;5052973;28;20596;-74
2023/12/30 05:12:40;;;;;;;11.23;2.07;;;9.00;99.90;;;;;;5052389;28;20183;-76
2023/12/30 05:15:06;;;;;;;11.43;2.23;;;9.00;99.90;;;;;;5051265;28;20253;-75
2023/12/30 05:17:32;;;;;;;13.00;1.70;;;9.00;99.90;;;;;;5052607;28;20167;-74
2023/12/30 05:19:57;;;;;;;2.40;1.27;;;8.90;99.90;;;;;;5052416;28;20398;-74
2023/12/30 05:22:23;;;;;;;14.03;3.53;;;9.00;99.90;;;;;;5052379;28;20426;-74
2023/12/30 05:24:48;;;;;;;3.60;1.27;;;9.00;99.90;;;;;;5052408;28;20167;-74
2023/12/30 05:27:14;;;;;;;9.90;1.77;;;9.10;99.90;;;;;;5052491;28;20543;-75
2023/12/30 05:29:39;;;;;;;10.97;2.13;;;9.10;99.90;;;;;;5052377;28;20171;-74
2023/12/30 05:32:05;;;;;;;7.80;1.97;;;9.10;99.90;;;;;;5051250;28;20594;-74
2023/12/30 05:34:31;;;;;;;7.70;1.37;;;9.20;99.90;;;;;;5052289;28;20195;-74
2023/12/30 05:36:56;;;;;;;3.97;1.30;;;9.30;99.90;;;;;;5052321;28;20170;-74
2023/12/30 05:39:22;;;;;;;4.67;1.80;;;9.30;99.90;;;;;;5052184;28;20250;-74
2023/12/30 05:41:47;;;;;;;4.97;2.27;;;9.30;99.90;;;;;;5052042;28;20159;-74
2023/12/30 05:44:13;;;;;;;5.80;1.73;;;9.30;99.90;;;;;;5050742;28;20183;-74
2023/12/30 05:46:38;;;;;;;7.47;2.00;;;9.40;99.90;;;;;;5052085;28;20163;-74
2023/12/30 05:49:04;;;;;;;7.27;1.50;;;9.30;99.90;;;;;;5052128;28;20245;-74
2023/12/30 05:51:29;;;;;;;5.53;1.80;;;9.30;99.90;;;;;;5051884;28;20190;-74
2023/12/30 05:53:55;;;;;;;3.70;2.23;;;9.20;99.90;;;;;;5050511;28;20724;-74
2023/12/30 05:56:22;;;;;;;8.53;1.90;;;9.30;99.90;;;;;;5051964;28;20222;-74
2023/12/30 05:58:48;;;;;;;8.70;1.80;;;9.20;99.90;;;;;;5051949;28;20916;-75
2023/12/30 06:01:14;;;;;;;8.23;1.77;;;9.20;99.90;;;;;;5052008;28;20788;-75
2023/12/30 06:03:39;;;;;;;3.60;1.47;;;9.20;99.90;;;;;;5051599;28;20413;-75
2023/12/30 06:06:05;;;;;;;6.30;2.03;;;9.20;99.90;;;;;;5051838;28;20170;-75
2023/12/30 06:08:32;;;;;;;12.30;2.13;;;9.30;99.90;;;;;;5051915;28;20167;-74
2023/12/30 06:10:58;;;;;;;9.87;1.90;;;9.30;99.90;;;;;;5051843;28;20642;-76
2023/12/30 06:13:24;;;;;;;3.90;2.10;;;9.30;99.90;;;;;;5051577;28;20431;-75
2023/12/30 06:15:50;;;;;;;2.50;1.10;;;9.30;99.90;;;;;;5051623;28;20662;-75
2023/12/30 06:18:16;;;;;;;3.93;1.80;;;9.50;99.90;;;;;;5051784;28;20166;-75
2023/12/30 06:20:46;;;;;;;9.60;1.50;;;9.50;99.90;;;;;;5051788;28;20904;-75
2023/12/30 06:23:12;;;;;;;5.20;1.50;;;9.60;99.90;;;;;;5051293;28;20959;-74
2023/12/30 06:25:39;;;;;;;9.53;1.70;;;9.50;99.90;;;;;;5051661;28;20405;-75
2023/12/30 06:28:05;;;;;;;4.33;1.53;;;9.50;99.90;;;;;;5051649;28;20415;-75
2023/12/30 06:30:30;;;;;;;7.60;1.70;;;9.50;99.90;;;;;;5051619;28;20765;-75
2023/12/30 06:32:56;;;;;;;8.00;1.83;;;9.50;99.90;;;;;;5051333;28;20432;-75
2023/12/30 06:35:21;;;;;;;9.90;3.27;;;9.50;99.90;;;;;;5051495;28;20190;-75
2023/12/30 06:37:49;;;;;;;21.83;9.20;;;9.40;99.90;;;;;;5051598;28;20163;-75
2023/12/30 06:40:15;;;;;;;7.17;2.50;;;9.50;99.90;;;;;;5051601;28;20163;-74
2023/12/30 06:42:44;;;;;;;7.37;1.57;;;9.40;99.90;;;;;;5051285;28;20423;-74
2023/12/30 06:45:10;;;;;;;5.87;1.40;;;9.40;99.90;;;;;;5054192;28;20174;-74
2023/12/30 06:47:36;;;;;;;7.73;1.63;;;9.30;99.90;;;;;;5055549;28;20768;-74
2023/12/30 06:50:01;;;;;;;5.20;1.70;;;9.20;99.90;;;;;;5055474;28;20166;-74
2023/12/30 06:52:27;;;;;;;4.17;1.53;;;9.20;99.90;;;;;;5055147;28;20268;-74
2023/12/30 06:54:53;;;;;;;4.13;1.70;;;9.20;99.90;;;;;;5055175;28;20193;-74
2023/12/30 06:57:19;;;;;;;6.23;2.00;;;9.20;99.90;;;;;;5055374;28;20216;-74
2023/12/30 06:59:44;;;;;;;12.33;2.00;;;9.30;99.90;;;;;;5055258;28;20402;-75
2023/12/30 07:02:10;;;;;;;10.50;2.00;;;9.40;99.90;;;;;;5054898;28;20167;-74
2023/12/30 07:04:35;;;;;;;8.73;1.83;;;9.40;99.90;;;;;;5055140;28;20175;-75
2023/12/30 07:07:01;;;;;;;10.63;2.37;;;9.50;99.90;;;;;;5055208;28;20653;-73
2023/12/30 07:09:26;;;;;;;4.57;1.80;;;9.40;99.90;;;;;;5055098;28;20170;-73
2023/12/30 07:11:52;;;;;;;6.10;2.03;;;9.50;99.90;;;;;;5054814;28;20257;-74
2023/12/30 07:14:17;;;;;;;3.40;1.70;;;9.40;99.90;;;;;;5053616;28;20189;-74
2023/12/30 07:16:49;;;;;;;12.27;3.13;;;9.40;99.90;;;;;;5054961;28;20167;-75
2023/12/30 07:19:14;;;;;;;9.43;2.27;;;9.40;99.90;;;;;;5054996;28;20634;-75
2023/12/30 07:21:40;;;;;;;10.97;1.83;;;9.30;99.90;;;;;;5054697;28;20402;-74
2023/12/30 07:24:06;;;;;;;4.23;1.50;;;9.20;99.90;;;;;;5054584;28;20542;-75
2023/12/30 07:26:32;;;;;;;5.80;1.60;;;9.30;99.90;;;;;;5053497;28;20630;-75
2023/12/30 07:28:59;;;;;;;5.80;1.20;;;9.20;99.90;;;;;;5054705;28;20517;-75
2023/12/30 07:31:25;;;;;;;7.00;1.33;;;9.20;99.90;;;;;;5054421;28;20496;-74
2023/12/30 07:33:51;;;;;;;6.43;2.20;;;9.10;99.90;;;;;;5054540;28;20468;-75
2023/12/30 07:36:17;;;;;;;16.60;2.23;;;9.10;99.90;;;;;;5054499;28;20492;-75
2023/12/30 07:38:43;;;;;;;7.40;1.80;;;9.10;99.90;;;;;;5054587;28;20169;-76
2023/12/30 07:41:09;;;;;;;2.00;1.07;;;9.20;99.90;;;;;;5054492;28;20409;-75
2023/12/30 07:43:35;;;;;;;4.90;1.80;;;9.30;99.90;;;;;;5054225;28;20329;-76
2023/12/30 07:46:00;;;;;;;4.40;1.30;;;9.20;99.90;;;;;;5054389;28;20538;-75
2023/12/30 07:48:29;;;;;;;5.83;1.73;;;9.10;99.90;;;;;;5054402;28;20216;-73
2023/12/30 07:50:54;;;;;;;6.07;1.63;;;9.10;99.90;;;;;;5054331;28;20511;-72
2023/12/30 07:53:20;;;;;;;6.97;1.73;;;9.20;99.90;;;;;;5053593;28;20441;-72
2023/12/30 07:55:45;;;;;;;7.70;1.67;;;9.10;99.90;;;;;;5053149;28;20198;-72
2023/12/30 07:58:11;;;;;;;9.47;2.07;;;9.20;99.90;;;;;;5054244;28;20589;-76
2023/12/30 08:00:37;;;;;;;3.10;1.70;;;9.20;99.90;;;;;;5054023;28;20532;-75
2023/12/30 08:03:03;;;;;;;2.17;1.20;;;9.20;99.90;;;;;;5053879;28;20658;-74
2023/12/30 08:05:29;;;;;;;4.87;1.93;;;9.20;99.90;;;;;;5053934;28;20170;-73
2023/12/30 08:07:54;;;;;;;3.50;1.50;;;9.20;99.90;;;;;;5053835;28;20417;-73
2023/12/30 08:10:20;;;;;;;5.93;1.90;;;9.20;99.90;;;;;;5052671;28;20182;-74
2023/12/30 08:12:45;;;;;;;3.80;1.97;;;9.20;99.90;;;;;;5053713;28;20202;-74
2023/12/30 08:15:11;;;;;;;3.43;1.40;;;9.20;99.90;;;;;;5053657;28;20269;-74
2023/12/30 08:17:36;;;;;;;3.57;1.47;;;9.20;99.90;;;;;;5053857;28;20175;-73
2023/12/30 08:20:04;;;;;;;6.73;2.30;;;9.20;99.90;;;;;;5053733;28;20661;-74
2023/12/30 08:22:30;;;;;;;9.50;2.07;;;9.30;99.90;;;;;;5053362;28;20271;-74
2023/12/30 08:24:55;;;;;;;4.00;2.10;;;9.30;99.90;;;;;;5053568;28;20496;-73
2023/12/30 08:27:20;;;;;;;3.97;1.70;;;9.30;99.90;;;;;;5053537;28;20171;-74
2023/12/30 08:29:46;;;;;;;5.00;2.00;;;9.30;99.90;;;;;;5053586;28;20167;-74
2023/12/30 08:32:12;;;;;;;6.03;1.70;;;9.40;99.90;;;;;;5053176;28;20681;-74
2023/12/30 08:34:37;;;;;;;10.93;2.67;;;9.40;99.90;;;;;;5053343;28;20198;-74
2023/12/30 08:37:08;;;;;;;13.03;1.83;;;9.30;99.90;;;;;;5053406;28;20626;-74
2023/12/30 08:39:35;;;;;;;5.03;1.40;;;9.40;99.90;;;;;;5053511;28;20167;-74
2023/12/30 08:42:02;;;;;;;2.17;1.40;;;9.50;99.90;;;;;;5053105;28;20548;-73
2023/12/30 08:44:28;;;;;;;7.83;1.90;;;9.60;99.90;;;;;;5053309;28;20776;-74
2023/12/30 08:46:53;;;;;;;3.10;1.30;;;9.60;99.90;;;;;;5053284;28;20413;-74
2023/12/30 08:49:19;;;;;;;7.13;2.10;;;9.70;99.90;;;;;;5053173;28;20166;-74
2023/12/30 08:51:44;;;;;;;19.30;2.03;;;9.70;99.90;;;;;;5052872;28;20179;-74
2023/12/30 08:54:10;;;;;;;8.80;2.40;;;9.80;99.90;;;;;;5051456;28;20217;-74
2023/12/30 08:56:35;;;;;;;10.20;2.10;;;9.90;99.90;;;;;;5053164;28;20167;-74
2023/12/30 08:59:01;;;;;;;4.73;2.10;;;9.90;99.90;;;;;;5053034;28;20630;-73
2023/12/30 09:01:27;;;;;;;8.40;3.13;;;10.00;99.90;;;;;;5052785;28;20171;-74
2023/12/30 09:03:54;;;;;;;6.40;2.50;;;9.90;99.90;;;;;;5052678;28;20190;-73
2023/12/30 09:06:19;;;;;;;3.03;1.60;;;10.00;99.90;;;;;;5052700;28;20164;-74
2023/12/30 09:08:45;;;;;;;3.13;1.87;;;10.00;99.90;;;;;;5051941;28;21026;-75
2023/12/30 09:11:21;;;;;;;7.77;2.60;;;10.10;99.90;;;;;;5051200;28;20179;-74
2023/12/30 09:13:47;;;;;;;6.17;1.60;;;10.20;99.90;;;;;;5052493;28;20193;-75
2023/12/30 09:16:12;;;;;;;11.73;2.43;;;10.20;99.90;;;;;;5052677;28;20488;-74
2023/12/30 09:18:38;;;;;;;15.87;2.83;;;10.30;99.90;;;;;;5051625;28;20452;-74
2023/12/30 09:21:03;;;;;;;5.50;2.10;;;10.50;99.90;;;;;;5052837;28;20189;-74
2023/12/30 09:23:29;;;;;;;2.80;1.53;;;10.60;99.90;;;;;;5052214;28;20183;-75
2023/12/30 09:25:55;;;;;;;8.53;1.70;;;10.70;99.90;;;;;;5052542;28;20193;-75
2023/12/30 09:28:20;;;;;;;6.17;2.33;;;10.80;99.90;;;;;;5052387;28;20699;-74
2023/12/30 09:30:46;;;;;;;15.70;2.10;;;11.00;99.90;;;;;;5052303;28;20179;-73
2023/12/30 09:33:11;;;;;;;6.53;1.80;;;11.20;99.90;;;;;;5050370;28;20191;-70
2023/12/30 09:35:37;;;;;;;3.67;2.43;;;11.30;99.90;;;;;;5052170;28;20210;-70
2023/12/30 09:38:02;;;;;;;6.67;1.77;;;11.30;99.90;;;;;;5052319;28;20159;-70
2023/12/30 09:40:28;;;;;;;2.33;1.13;;;11.60;99.90;;;;;;5052303;28;20167;-68
2023/12/30 09:42:58;;;;;;;2.27;1.57;;;11.50;99.90;;;;;;5051953;28;20183;-70
2023/12/30 09:45:24;;;;;;;12.93;1.90;;;11.50;99.90;;;;;;5052168;28;20167;-69
2023/12/30 09:47:51;;;;;;;3.17;1.30;;;11.50;99.90;;;;;;5052173;28;20845;-70
2023/12/30 09:50:16;;;;;;;7.77;2.03;;;11.40;99.90;;;;;;5052098;28;20488;-70
2023/12/30 09:52:42;;;;;;;5.27;1.90;;;11.50;99.90;;;;;;5051718;28;20532;-69
2023/12/30 09:55:08;;;;;;;9.57;2.50;;;11.60;99.90;;;;;;5051952;28;20218;-69
2023/12/30 09:57:33;;;;;;;8.70;2.23;;;11.50;99.90;;;;;;5051698;28;20688;-70
2023/12/30 09:59:59;;;;;;;4.50;1.13;;;11.60;99.90;;;;;;5051979;28;20186;-70
2023/12/30 10:02:25;;;;;;;3.17;1.57;;;11.70;99.90;;;;;;5051532;28;20286;-70
2023/12/30 10:04:52;;;;;;;2.90;1.73;;;11.90;99.90;;;;;;5051864;28;20413;-68
2023/12/30 10:07:19;;;;;;;11.53;1.93;;;12.10;99.90;;;;;;5051948;28;20600;-70
2023/12/30 10:09:45;;;;;;;7.30;1.77;;;11.90;99.90;;;;;;5051906;28;20827;-70
2023/12/30 10:12:11;;;;;;;4.97;1.70;;;11.90;99.90;;;;;;5063142;28;20931;-70
2023/12/30 10:14:36;;;;;;;4.23;2.03;;;11.80;99.90;;;;;;5071578;28;20440;-73
2023/12/30 10:17:04;;;;;;;2.60;1.60;;;11.60;99.90;;;;;;5071942;28;20170;-72
2023/12/30 10:19:29;;;;;;;9.13;2.57;;;11.60;99.90;;;;;;5071279;28;20166;-71
2023/12/30 10:21:55;;;;;;;7.73;2.97;;;11.50;99.90;;;;;;5070962;28;20411;-71
2023/12/30 10:24:21;;;;;;;3.53;1.10;;;11.30;99.90;;;;;;5071508;28;20174;-72
2023/12/30 10:26:47;;;;;;;8.30;1.77;;;11.40;99.90;;;;;;5071830;28;20478;-70
2023/12/30 10:29:13;;;;;;;8.57;1.80;;;11.60;99.90;;;;;;5071703;28;20268;-71
2023/12/30 10:31:39;;;;;;;4.43;1.60;;;11.60;99.90;;;;;;5071259;28;20771;-70
2023/12/30 10:34:05;;;;;;;5.73;1.33;;;11.70;99.90;;;;;;5071408;28;20427;-71
2023/12/30 10:36:31;;;;;;;9.33;1.90;;;11.70;99.90;;;;;;5071394;28;20338;-70
2023/12/30 10:38:59;;;;;;;8.33;1.67;;;11.70;99.90;;;;;;5071663;28;20467;-70
2023/12/30 10:41:26;;;;;;;6.57;1.87;;;11.80;99.90;;;;;;5068098;28;20162;-71
2023/12/30 10:43:52;;;;;;;3.80;1.33;;;11.90;99.90;;;;;;5051348;28;20421;-70
2023/12/30 10:46:19;;;;;;;2.53;1.47;;;12.00;99.90;;;;;;5054814;28;20413;-70
2023/12/30 10:48:55;;;;;;;9.43;2.27;;;12.20;99.90;;;;;;5071420;28;20397;-70
2023/12/30 10:51:26;;;;;;;3.83;2.50;;;12.20;99.90;;;;;;5071208;28;20910;-71
2023/12/30 10:54:03;;;;;;;6.50;1.93;;;12.30;99.90;;;;;;5071224;28;20856;-69
2023/12/30 10:56:31;;;;;;;4.07;1.60;;;12.30;99.90;;;;;;5071225;28;20475;-70
2023/12/30 10:59:00;;;;;;;8.33;1.77;;;12.30;99.90;;;;;;5071490;28;20405;-70
2023/12/30 11:01:26;;;;;;;5.23;1.97;;;12.30;99.90;;;;;;5070972;28;20411;-71
2023/12/30 11:03:52;;;;;;;5.90;1.93;;;12.40;99.90;;;;;;5071216;28;21001;-70
2023/12/30 11:06:38;;;;;;;2.67;1.43;;;12.60;99.90;;;;;;5071046;28;20197;-70
2023/12/30 11:09:11;;;;;;;6.87;1.60;;;12.70;99.90;;;;;;5071198;28;20407;-69
2023/12/30 11:11:52;;;;;;;10.13;1.83;;;12.80;99.90;;;;;;5070694;28;20408;-70
2023/12/30 11:14:19;;;;;;;4.83;1.67;;;13.00;99.90;;;;;;5070850;28;20407;-70
2023/12/30 11:16:45;;;;;;;7.90;1.43;;;13.10;99.90;;;;;;5071181;28;20907;-71
2023/12/30 11:19:23;;;;;;;4.50;1.67;;;13.20;99.90;;;;;;5071365;28;20401;-70
2023/12/30 11:21:49;;;;;;;2.70;1.50;;;13.40;99.90;;;;;;5071007;28;20815;-71
2023/12/30 11:24:17;;;;;;;5.53;1.40;;;13.70;99.90;;;;;;5070966;28;20460;-73
2023/12/30 11:26:44;;;;;;;1.90;1.13;;;13.90;99.90;;;;;;5071181;28;20162;-72
2023/12/30 11:29:15;;;;;;;2.50;0.97;;;14.00;99.90;;;;;;5071123;28;20817;-71
2023/12/30 11:31:42;;;;;;;5.27;1.20;;;14.00;99.90;;;;;;5073936;28;20408;-70
2023/12/30 11:34:09;;;;;;;6.20;1.30;;;14.00;99.90;;;;;;5074536;28;20424;-70
2023/12/30 11:36:36;;;;;;;4.07;1.20;;;14.20;99.90;;;;;;5074446;28;20813;-70
2023/12/30 11:39:03;;;;;;;2.60;1.47;;;14.20;99.90;;;;;;5074537;28;20400;-69
2023/12/30 11:41:30;;;;;;;3.50;1.30;;;14.10;99.90;;;;;;5074386;28;20903;-71
2023/12/30 11:43:58;;;;;;;4.30;1.50;;;13.90;99.90;;;;;;5072882;28;21101;-69
2023/12/30 11:46:27;;;;;;;3.80;1.77;;;13.70;99.90;;;;;;5074399;28;20774;-69
2023/12/30 11:48:53;;;;;;;5.07;1.30;;;13.70;99.90;;;;;;5074379;28;20538;-70
2023/12/30 11:51:26;;;;;;;7.00;1.60;;;13.80;99.90;;;;;;5074326;28;20978;-71
2023/12/30 11:53:51;;;;;;;5.00;2.60;;;13.90;99.90;;;;;;5073920;28;20202;-69
2023/12/30 11:56:19;;;;;;;1.77;1.10;;;13.90;99.90;;;;;;5074166;28;20464;-69
2023/12/30 11:58:45;;;;;;;9.43;1.67;;;14.10;99.90;;;;;;5073923;28;20400;-69
2023/12/30 12:01:12;;;;;;;3.10;1.37;;;14.10;99.90;;;;;;5074076;28;20404;-70
2023/12/30 12:03:38;;;;;;;2.47;1.80;;;14.10;99.90;;;;;;5073706;28;20459;-71
2023/12/30 12:06:04;;;;;;;2.00;1.20;;;14.00;99.90;;;;;;5074051;28;20412;-70
2023/12/30 12:08:29;;;;;;;1.60;1.03;;;14.10;99.90;;;;;;5073437;28;20759;-69
2023/12/30 12:10:56;;;;;;;9.50;1.70;;;14.40;99.90;;;;;;5073791;28;20249;-70
2023/12/30 12:13:26;;;;;;;3.43;1.50;;;15.20;99.90;;;;;;5073675;28;20273;-69
2023/12/30 12:15:53;;;;;;;5.20;1.20;;;16.20;99.90;;;;;;5073630;28;20483;-68
2023/12/30 12:18:22;;;;;;;3.40;1.27;;;16.90;97.80;;;;;;5073824;28;20460;-69
2023/12/30 12:20:48;;;;;;;8.90;3.47;;;16.90;94.80;;;;;;5073714;28;20914;-69
2023/12/30 12:23:14;;;;;;;10.23;1.70;;;16.90;92.40;;;;;;5072111;28;20412;-69
2023/12/30 12:25:43;;;;;;;3.17;1.40;;;16.30;88.60;;;;;;5073698;28;20763;-69
2023/12/30 12:28:14;;;;;;;5.97;1.50;;;16.00;90.30;;;;;;5073639;28;20636;-70
2023/12/30 12:30:40;;;;;;;4.37;1.60;;;16.40;90.70;;;;;;5073657;28;20732;-71
2023/12/30 12:33:07;;;;;;;3.00;1.30;;;17.10;90.00;;;;;;5073240;28;20427;-71
2023/12/30 12:35:33;;;;;;;2.00;1.23;;;18.60;86.60;;;;;;5073409;28;20212;-71
2023/12/30 12:37:59;;;;;;;5.13;1.70;;;19.80;74.60;;;;;;5073404;28;20400;-70
2023/12/30 12:40:24;;;;;;;2.30;1.17;;;20.80;66.60;;;;;;5073270;28;20576;-71
2023/12/30 12:42:50;;;;;;;3.00;1.33;;;21.40;56.10;;;;;;5072699;28;20716;-71
2023/12/30 12:45:16;;;;;;;3.60;1.60;;;21.90;56.00;;;;;;5073315;28;20201;-71
2023/12/30 12:47:42;;;;;;;7.93;2.50;;;22.10;52.50;;;;;;5073265;28;20175;-71